createdAt,value
2018-01-28T00:00:03.526Z,98.70
2018-01-28T00:02:31.611Z,98.50
2018-01-28T00:04:59.311Z,98.40
2018-01-28T00:07:26.209Z,98.30
2018-01-28T00:12:29.938Z,98.40
2018-01-28T00:14:59.806Z,98.30
2018-01-28T00:17:27.960Z,98.30
2018-01-28T00:20:57.287Z,98.20
2018-01-28T00:24:23.040Z,98.00
2018-01-28T00:26:50.275Z,98.00
2018-01-28T00:29:19.221Z,97.50
2018-01-28T00:31:47.385Z,97.50
2018-01-28T00:34:15.467Z,97.50
2018-01-28T00:36:43.040Z,97.90
2018-01-28T00:39:10.124Z,97.90
2018-01-28T00:41:37.997Z,97.80
2018-01-28T00:44:05.730Z,98.00
2018-01-28T00:46:32.871Z,98.00
2018-01-28T00:49:00.964Z,98.30
2018-01-28T00:51:28.604Z,98.20
2018-01-28T00:53:56.470Z,98.30
2018-01-28T00:56:23.584Z,98.30
2018-01-28T00:58:50.758Z,98.30
2018-01-28T01:01:18.414Z,98.40
2018-01-28T01:03:46.198Z,98.40
2018-01-28T01:06:13.216Z,98.50
2018-01-28T01:08:41.117Z,98.80
2018-01-28T01:11:08.164Z,98.70
2018-01-28T01:13:35.223Z,98.90
2018-01-28T01:16:02.272Z,99.00
2018-01-28T01:18:30.149Z,99.00
2018-01-28T01:20:57.812Z,99.00
2018-01-28T01:23:24.867Z,99.20
2018-01-28T01:25:53.250Z,99.30
2018-01-28T01:28:20.177Z,99.50
2018-01-28T01:30:48.587Z,99.60
2018-01-28T01:33:15.540Z,99.50
2018-01-28T01:35:43.002Z,99.70
2018-01-28T01:38:10.054Z,99.50
2018-01-28T01:40:36.901Z,99.50
2018-01-28T01:43:04.679Z,99.50
2018-01-28T01:45:31.651Z,99.60
2018-01-28T01:47:58.441Z,99.50
2018-01-28T01:50:25.667Z,99.50
2018-01-28T01:52:52.505Z,99.50
2018-01-28T01:55:19.840Z,99.50
2018-01-28T01:57:47.816Z,99.50
2018-01-28T02:00:15.790Z,99.50
2018-01-28T02:02:42.767Z,99.60
2018-01-28T02:05:09.706Z,99.60
2018-01-28T02:07:37.358Z,99.70
2018-01-28T02:10:04.051Z,99.60
2018-01-28T02:12:30.854Z,99.70
2018-01-28T02:14:57.804Z,99.70
2018-01-28T02:17:24.654Z,99.70
2018-01-28T02:19:51.397Z,99.70
2018-01-28T02:22:19.336Z,99.70
2018-01-28T02:24:47.555Z,99.70
2018-01-28T02:27:14.404Z,99.70
2018-01-28T02:29:41.461Z,99.70
2018-01-28T02:32:08.283Z,99.70
2018-01-28T02:34:35.563Z,99.70
2018-01-28T02:37:03.397Z,99.80
2018-01-28T02:39:31.000Z,99.90
2018-01-28T02:41:58.704Z,99.80
2018-01-28T02:44:25.927Z,99.80
2018-01-28T02:46:52.605Z,99.80
2018-01-28T02:49:20.033Z,99.80
2018-01-28T02:51:46.881Z,99.90
2018-01-28T02:54:14.757Z,99.90
2018-01-28T02:56:41.905Z,99.90
2018-01-28T02:59:08.759Z,99.90
2018-01-28T03:01:35.916Z,99.90
2018-01-28T03:04:03.010Z,99.90
2018-01-28T03:06:31.681Z,99.90
2018-01-28T03:08:59.210Z,99.80
2018-01-28T03:11:26.112Z,99.90
2018-01-28T03:13:53.437Z,99.90
2018-01-28T03:16:20.494Z,99.90
2018-01-28T03:18:48.360Z,99.90
2018-01-28T03:21:15.155Z,99.90
2018-01-28T03:23:42.117Z,99.90
2018-01-28T03:26:09.319Z,99.90
2018-01-28T03:28:36.060Z,99.90
2018-01-28T03:31:03.016Z,99.90
2018-01-28T03:33:30.173Z,99.90
2018-01-28T03:35:57.019Z,99.90
2018-01-28T03:38:24.687Z,99.90
2018-01-28T03:40:51.744Z,99.90
2018-01-28T03:43:18.505Z,99.90
2018-01-28T03:45:46.564Z,99.90
2018-01-28T03:48:14.871Z,99.90
2018-01-28T03:50:41.707Z,99.90
2018-01-28T03:53:09.367Z,99.90
2018-01-28T03:55:36.317Z,99.90
2018-01-28T03:58:03.151Z,99.90
2018-01-28T04:00:29.988Z,99.90
2018-01-28T04:02:57.054Z,99.90
2018-01-28T04:05:24.326Z,99.90
2018-01-28T04:07:51.542Z,99.90
2018-01-28T04:10:19.212Z,99.90
2018-01-28T04:12:47.228Z,99.90
2018-01-28T04:15:14.456Z,99.90
2018-01-28T04:17:42.149Z,99.90
2018-01-28T04:20:09.134Z,99.90
2018-01-28T04:22:35.874Z,99.90
2018-01-28T04:25:04.443Z,99.90
2018-01-28T04:27:32.309Z,99.90
2018-01-28T04:30:00.159Z,99.90
2018-01-28T04:32:29.367Z,99.90
2018-01-28T04:34:57.213Z,99.90
2018-01-28T04:37:24.417Z,99.90
2018-01-28T04:39:51.391Z,99.90
2018-01-28T04:42:18.318Z,99.90
2018-01-28T04:44:45.880Z,99.90
2018-01-28T04:47:12.650Z,99.90
2018-01-28T04:49:39.579Z,99.90
2018-01-28T04:52:06.860Z,99.90
2018-01-28T04:54:33.688Z,99.90
2018-01-28T04:57:02.587Z,99.90
2018-01-28T04:59:29.736Z,99.90
2018-01-28T05:01:57.208Z,99.90
2018-01-28T05:04:24.022Z,99.90
2018-01-28T05:06:51.826Z,99.90
2018-01-28T05:09:19.901Z,99.90
2018-01-28T05:11:46.646Z,99.90
2018-01-28T05:14:13.702Z,99.90
2018-01-28T05:16:40.653Z,99.90
2018-01-28T05:19:09.132Z,99.90
2018-01-28T05:21:35.934Z,99.90
2018-01-28T05:24:02.707Z,99.90
2018-01-28T05:26:29.627Z,99.90
2018-01-28T05:28:57.419Z,99.90
2018-01-28T05:31:24.970Z,99.90
2018-01-28T05:33:52.686Z,99.90
2018-01-28T05:36:19.538Z,99.90
2018-01-28T05:38:46.283Z,99.90
2018-01-28T05:41:14.351Z,99.90
2018-01-28T05:43:41.618Z,99.90
2018-01-28T05:46:09.271Z,99.90
2018-01-28T05:48:36.545Z,99.90
2018-01-28T05:51:04.415Z,99.90
2018-01-28T05:53:31.163Z,99.90
2018-01-28T05:55:58.728Z,99.90
2018-01-28T05:58:26.908Z,99.90
2018-01-28T06:00:54.062Z,99.90
2018-01-28T06:03:21.744Z,99.90
2018-01-28T06:05:49.706Z,99.90
2018-01-28T06:08:17.435Z,99.90
2018-01-28T06:10:45.452Z,99.90
2018-01-28T06:13:12.166Z,99.90
2018-01-28T06:15:39.621Z,99.90
2018-01-28T06:18:07.003Z,99.90
2018-01-28T06:20:34.792Z,99.90
2018-01-28T06:23:01.843Z,99.90
2018-01-28T06:25:29.196Z,99.90
2018-01-28T06:27:56.051Z,99.90
2018-01-28T06:30:22.904Z,99.90
2018-01-28T06:32:50.061Z,99.90
2018-01-28T06:35:17.524Z,99.90
2018-01-28T06:37:45.293Z,99.90
2018-01-28T06:40:13.067Z,99.90
2018-01-28T06:42:40.065Z,99.90
2018-01-28T06:45:07.146Z,99.90
2018-01-28T06:47:34.813Z,99.90
2018-01-28T06:50:01.951Z,99.90
2018-01-28T06:52:29.028Z,99.90
2018-01-28T06:54:56.520Z,99.90
2018-01-28T06:57:23.556Z,99.90
2018-01-28T06:59:52.465Z,99.90
2018-01-28T07:02:20.284Z,99.90
2018-01-28T07:04:48.093Z,99.90
2018-01-28T07:07:15.031Z,99.90
2018-01-28T07:09:42.311Z,99.90
2018-01-28T07:12:09.977Z,99.90
2018-01-28T07:14:37.033Z,99.90
2018-01-28T07:17:05.822Z,99.90
2018-01-28T07:19:33.287Z,99.90
2018-01-28T07:21:59.930Z,99.90
2018-01-28T07:24:27.396Z,99.90
2018-01-28T07:26:54.140Z,99.90
2018-01-28T07:29:20.892Z,99.90
2018-01-28T07:31:47.940Z,99.90
2018-01-28T07:34:16.729Z,99.90
2018-01-28T07:36:44.712Z,99.90
2018-01-28T07:39:12.606Z,99.90
2018-01-28T07:41:39.842Z,99.90
2018-01-28T07:44:06.688Z,99.90
2018-01-28T07:46:33.639Z,99.90
2018-01-28T07:49:00.901Z,99.90
2018-01-28T07:51:28.784Z,99.90
2018-01-28T07:53:56.194Z,99.90
2018-01-28T07:56:22.923Z,99.90
2018-01-28T07:58:50.641Z,99.90
2018-01-28T08:01:17.703Z,99.80
2018-01-28T08:03:44.424Z,99.90
2018-01-28T08:06:11.884Z,99.70
2018-01-28T08:08:41.623Z,99.60
2018-01-28T08:11:28.842Z,99.80
2018-01-28T08:13:58.451Z,99.70
2018-01-28T08:16:25.508Z,99.70
2018-01-28T08:18:52.663Z,99.30
2018-01-28T08:21:19.615Z,99.40
2018-01-28T08:23:46.362Z,99.30
2018-01-28T08:26:13.318Z,99.40
2018-01-28T08:28:41.081Z,99.50
2018-01-28T08:31:08.856Z,99.50
2018-01-28T08:33:37.750Z,99.50
2018-01-28T08:36:04.599Z,99.50
2018-01-28T08:38:32.467Z,99.50
2018-01-28T08:41:00.220Z,99.30
2018-01-28T08:43:28.417Z,99.40
2018-01-28T08:45:55.574Z,99.50
2018-01-28T08:48:23.138Z,99.40
2018-01-28T08:50:50.296Z,99.50
2018-01-28T08:53:17.144Z,99.50
2018-01-28T08:55:44.387Z,99.30
2018-01-28T08:58:11.141Z,99.40
2018-01-28T09:00:39.463Z,99.30
2018-01-28T09:03:06.224Z,99.30
2018-01-28T09:05:33.126Z,99.20
2018-01-28T09:08:01.002Z,99.30
2018-01-28T09:10:27.699Z,99.30
2018-01-28T09:12:55.922Z,99.40
2018-01-28T09:15:22.836Z,99.30
2018-01-28T09:17:52.472Z,99.40
2018-01-28T09:20:20.278Z,99.30
2018-01-28T09:22:47.349Z,99.30
2018-01-28T09:25:15.582Z,99.50
2018-01-28T09:27:43.620Z,99.00
2018-01-28T09:30:10.832Z,99.00
2018-01-28T09:32:37.882Z,99.20
2018-01-28T09:35:05.346Z,99.00
2018-01-28T09:37:32.321Z,99.10
2018-01-28T09:39:59.656Z,98.90
2018-01-28T09:42:26.395Z,98.90
2018-01-28T09:44:53.357Z,98.90
2018-01-28T09:47:20.533Z,98.90
2018-01-28T09:49:47.279Z,98.20
2018-01-28T09:52:14.293Z,98.50
2018-01-28T09:54:42.799Z,98.60
2018-01-28T09:57:09.952Z,98.50
2018-01-28T09:59:36.734Z,98.30
2018-01-28T10:02:03.955Z,98.60
2018-01-28T10:04:30.908Z,98.40
2018-01-28T10:06:57.947Z,98.30
2018-01-28T10:09:26.219Z,98.40
2018-01-28T10:11:53.710Z,98.30
2018-01-28T10:14:21.788Z,98.50
2018-01-28T10:16:48.787Z,98.40
2018-01-28T10:19:15.592Z,98.60
2018-01-28T10:21:42.845Z,98.50
2018-01-28T10:24:10.076Z,98.40
2018-01-28T10:26:37.562Z,97.80
2018-01-28T10:29:04.412Z,97.80
2018-01-28T10:31:31.879Z,98.00
2018-01-28T10:33:59.395Z,97.70
2018-01-28T10:36:26.181Z,97.60
2018-01-28T10:38:53.243Z,97.50
2018-01-28T10:41:20.109Z,97.70
2018-01-28T10:43:47.963Z,97.40
2018-01-28T10:46:14.919Z,97.30
2018-01-28T10:48:41.971Z,97.50
2018-01-28T10:51:08.819Z,97.50
2018-01-28T10:53:35.776Z,97.40
2018-01-28T10:56:03.026Z,97.10
2018-01-28T10:58:30.899Z,97.10
2018-01-28T11:00:57.748Z,96.70
2018-01-28T11:03:25.316Z,96.60
2018-01-28T11:05:53.814Z,96.60
2018-01-28T11:08:22.120Z,96.40
2018-01-28T11:10:49.344Z,96.60
2018-01-28T11:13:17.090Z,96.40
2018-01-28T11:15:44.269Z,96.80
2018-01-28T11:18:12.037Z,96.80
2018-01-28T11:20:38.887Z,96.80
2018-01-28T11:23:05.939Z,96.80
2018-01-28T11:25:32.789Z,96.80
2018-01-28T11:28:00.355Z,96.30
2018-01-28T11:30:27.204Z,96.40
2018-01-28T11:32:54.132Z,96.50
2018-01-28T11:35:21.103Z,96.30
2018-01-28T11:37:48.157Z,96.40
2018-01-28T11:40:17.056Z,96.50
2018-01-28T11:42:44.092Z,96.60
2018-01-28T11:45:11.774Z,97.00
2018-01-28T11:47:39.851Z,97.00
2018-01-28T11:50:07.112Z,97.00
2018-01-28T11:52:35.083Z,97.00
2018-01-28T11:55:02.242Z,97.00
2018-01-28T11:57:29.011Z,97.30
2018-01-28T11:59:56.454Z,97.30
2018-01-28T12:02:23.187Z,97.10
2018-01-28T12:04:51.147Z,97.10
2018-01-28T12:07:18.740Z,97.10
2018-01-28T12:09:45.689Z,97.10
2018-01-28T12:12:12.546Z,97.10
2018-01-28T12:14:40.140Z,97.30
2018-01-28T12:17:08.998Z,97.20
2018-01-28T12:19:36.665Z,97.20
2018-01-28T12:22:05.159Z,97.40
2018-01-28T12:24:32.822Z,97.40
2018-01-28T12:27:00.592Z,97.50
2018-01-28T12:29:28.101Z,97.30
2018-01-28T12:31:55.647Z,97.40
2018-01-28T12:34:22.476Z,97.20
2018-01-28T12:36:49.213Z,96.90
2018-01-28T12:39:16.064Z,96.70
2018-01-28T12:41:43.305Z,96.60
2018-01-28T12:44:10.485Z,96.70
2018-01-28T12:46:38.240Z,96.50
2018-01-28T12:49:05.404Z,96.70
2018-01-28T12:51:32.135Z,96.70
2018-01-28T12:54:00.741Z,96.70
2018-01-28T12:56:27.901Z,96.70
2018-01-28T12:58:54.677Z,96.60
2018-01-28T13:01:24.253Z,96.50
2018-01-28T13:03:52.227Z,96.50
2018-01-28T13:06:20.508Z,96.60
2018-01-28T13:08:47.565Z,96.50
2018-01-28T13:11:14.690Z,96.40
2018-01-28T13:13:42.477Z,96.20
2018-01-28T13:16:10.361Z,96.20
2018-01-28T13:18:37.517Z,96.20
2018-01-28T13:21:06.042Z,96.30
2018-01-28T13:23:34.494Z,96.00
2018-01-28T13:26:01.632Z,96.00
2018-01-28T13:28:28.979Z,95.90
2018-01-28T13:30:56.162Z,96.00
2018-01-28T13:33:23.952Z,95.90
2018-01-28T13:35:50.960Z,95.80
2018-01-28T13:38:18.733Z,96.00
2018-01-28T13:40:48.490Z,96.00
2018-01-28T13:43:16.039Z,95.90
2018-01-28T13:45:42.887Z,96.20
2018-01-28T13:48:09.854Z,96.30
2018-01-28T13:50:37.509Z,96.30
2018-01-28T13:53:05.171Z,96.20
2018-01-28T13:55:32.864Z,96.00
2018-01-28T13:58:00.679Z,96.10
2018-01-28T14:00:27.702Z,96.00
2018-01-28T14:02:54.818Z,96.00
2018-01-28T14:05:21.671Z,96.30
2018-01-28T14:07:50.355Z,96.50
2018-01-28T14:10:18.253Z,96.50
2018-01-28T14:12:44.995Z,96.40
2018-01-28T14:15:11.723Z,96.10
2018-01-28T14:17:38.984Z,96.00
2018-01-28T14:20:06.216Z,96.30
2018-01-28T14:22:33.397Z,96.40
2018-01-28T14:25:01.473Z,96.70
2018-01-28T14:27:28.204Z,96.60
2018-01-28T14:29:55.705Z,96.90
2018-01-28T14:32:22.866Z,96.90
2018-01-28T14:34:50.719Z,97.10
2018-01-28T14:37:17.751Z,97.10
2018-01-28T14:39:45.030Z,96.80
2018-01-28T14:42:12.079Z,96.80
2018-01-28T14:44:39.338Z,96.80
2018-01-28T14:47:06.490Z,96.80
2018-01-28T14:49:33.957Z,96.60
2018-01-28T14:52:01.012Z,96.60
2018-01-28T14:54:27.859Z,96.60
2018-01-28T14:56:55.196Z,96.80
2018-01-28T14:59:22.875Z,97.00
2018-01-28T15:01:49.631Z,97.00
2018-01-28T15:04:18.299Z,97.10
2018-01-28T15:06:46.675Z,97.40
2018-01-28T15:09:13.965Z,97.30
2018-01-28T15:11:41.608Z,97.40
2018-01-28T15:14:10.233Z,97.50
2018-01-28T15:16:37.379Z,97.40
2018-01-28T15:19:04.789Z,97.40
2018-01-28T15:21:33.035Z,97.10
2018-01-28T15:23:59.869Z,97.10
2018-01-28T15:26:27.540Z,97.10
2018-01-28T15:28:54.998Z,97.10
2018-01-28T15:31:21.824Z,96.60
2018-01-28T15:33:49.421Z,96.70
2018-01-28T15:36:16.362Z,96.70
2018-01-28T15:38:43.627Z,96.90
2018-01-28T15:41:11.885Z,97.10
2018-01-28T15:43:40.801Z,97.60
2018-01-28T15:46:07.766Z,97.60
2018-01-28T15:48:36.035Z,97.60
2018-01-28T15:51:03.906Z,97.50
2018-01-28T15:53:31.269Z,97.60
2018-01-28T15:55:58.028Z,97.50
2018-01-28T15:58:24.861Z,97.40
2018-01-28T16:00:52.023Z,97.50
2018-01-28T16:03:19.072Z,97.40
2018-01-28T16:05:46.639Z,97.20
2018-01-28T16:08:13.490Z,97.20
2018-01-28T16:10:40.539Z,97.30
2018-01-28T16:13:07.797Z,97.40
2018-01-28T16:15:35.357Z,97.60
2018-01-28T16:18:02.351Z,97.70
2018-01-28T16:20:30.087Z,97.40
2018-01-28T16:22:57.755Z,97.40
2018-01-28T16:25:24.528Z,97.20
2018-01-28T16:27:51.348Z,97.00
2018-01-28T16:30:18.197Z,96.80
2018-01-28T16:32:45.259Z,96.70
2018-01-28T16:35:12.919Z,96.70
2018-01-28T16:37:40.078Z,96.50
2018-01-28T16:40:07.208Z,96.40
2018-01-28T16:42:34.795Z,96.80
2018-01-28T16:45:01.787Z,96.90
2018-01-28T16:47:28.698Z,97.10
2018-01-28T16:49:56.611Z,97.20
2018-01-28T16:52:23.525Z,97.30
2018-01-28T16:54:51.090Z,97.20
2018-01-28T16:57:18.962Z,97.20
2018-01-28T16:59:47.448Z,97.30
2018-01-28T17:02:14.909Z,97.20
2018-01-28T17:04:43.395Z,97.20
2018-01-28T17:07:11.457Z,97.10
2018-01-28T17:09:38.165Z,97.20
2018-01-28T17:12:04.912Z,97.30
2018-01-28T17:14:31.568Z,97.10
2018-01-28T17:16:58.292Z,96.80
2018-01-28T17:19:25.002Z,96.60
2018-01-28T17:21:52.055Z,96.90
2018-01-28T17:24:19.865Z,97.10
2018-01-28T17:26:46.855Z,96.80
2018-01-28T17:29:13.935Z,96.80
2018-01-28T17:31:41.396Z,96.80
2018-01-28T17:34:08.536Z,96.60
2018-01-28T17:36:35.581Z,96.70
2018-01-28T17:39:02.723Z,96.70
2018-01-28T17:41:29.757Z,96.90
2018-01-28T17:43:57.709Z,96.80
2018-01-28T17:46:26.174Z,96.80
2018-01-28T17:48:53.316Z,96.90
2018-01-28T17:51:20.902Z,96.70
2018-01-28T17:53:47.528Z,96.80
2018-01-28T17:56:15.163Z,96.80
2018-01-28T17:58:42.691Z,96.80
2018-01-28T18:01:10.928Z,96.80
2018-01-28T18:03:38.665Z,96.80
2018-01-28T18:06:05.469Z,96.80
2018-01-28T18:08:33.111Z,96.80
2018-01-28T18:11:00.700Z,97.10
2018-01-28T18:13:27.960Z,97.10
2018-01-28T18:15:54.784Z,97.00
2018-01-28T18:18:22.271Z,96.90
2018-01-28T18:20:49.020Z,96.90
2018-01-28T18:23:16.937Z,96.90
2018-01-28T18:25:46.075Z,96.90
2018-01-28T18:28:13.661Z,96.70
2018-01-28T18:30:41.066Z,96.70
2018-01-28T18:33:07.841Z,96.80
2018-01-28T18:35:35.235Z,96.80
2018-01-28T18:38:02.377Z,96.80
2018-01-28T18:40:29.335Z,96.80
2018-01-28T18:42:56.028Z,97.00
2018-01-28T18:45:22.916Z,96.60
2018-01-28T18:47:51.621Z,96.70
2018-01-28T18:50:18.473Z,96.70
2018-01-28T18:52:45.625Z,96.80
2018-01-28T18:55:12.558Z,96.70
2018-01-28T18:57:40.664Z,96.70
2018-01-28T19:00:07.402Z,96.70
2018-01-28T19:02:34.154Z,96.70
2018-01-28T19:05:01.510Z,96.50
2018-01-28T19:07:28.361Z,96.40
2018-01-28T19:09:56.448Z,96.30
2018-01-28T19:12:23.880Z,96.30
2018-01-28T19:14:51.668Z,96.40
2018-01-28T19:17:18.341Z,96.40
2018-01-28T19:19:46.869Z,96.50
2018-01-28T19:22:15.066Z,96.60
2018-01-28T19:24:43.456Z,96.60
2018-01-28T19:27:10.927Z,96.60
2018-01-28T19:29:37.878Z,97.10
2018-01-28T19:32:06.565Z,96.80
2018-01-28T19:34:34.580Z,96.70
2018-01-28T19:37:02.011Z,96.80
2018-01-28T19:39:29.265Z,96.80
2018-01-28T19:41:56.936Z,96.90
2018-01-28T19:44:24.089Z,96.70
2018-01-28T19:46:52.360Z,96.60
2018-01-28T19:49:20.335Z,96.40
2018-01-28T19:51:48.115Z,96.40
2018-01-28T19:54:17.013Z,96.30
2018-01-28T19:56:44.278Z,96.40
2018-01-28T19:59:12.142Z,96.30
2018-01-28T20:01:39.318Z,96.10
2018-01-28T20:04:06.146Z,96.20
2018-01-28T20:06:33.513Z,96.20
2018-01-28T20:09:03.444Z,96.20
2018-01-28T20:11:32.107Z,96.30
2018-01-28T20:14:00.505Z,96.30
2018-01-28T20:16:27.435Z,96.20
2018-01-28T20:18:55.800Z,96.00
2018-01-28T20:21:23.298Z,96.30
2018-01-28T20:23:52.196Z,95.80
2018-01-28T20:26:19.651Z,95.90
2018-01-28T20:28:47.389Z,95.80
2018-01-28T20:31:15.179Z,96.00
2018-01-28T20:33:42.252Z,96.00
2018-01-28T20:36:09.305Z,96.00
2018-01-28T20:38:36.036Z,95.90
2018-01-28T20:41:03.555Z,96.10
2018-01-28T20:43:31.292Z,96.10
2018-01-28T20:45:58.033Z,96.20
2018-01-28T20:48:24.883Z,96.30
2018-01-28T20:50:52.855Z,96.70
2018-01-28T20:53:19.673Z,96.50
2018-01-28T20:55:47.692Z,96.20
2018-01-28T20:58:14.496Z,96.20
2018-01-28T21:00:41.996Z,96.30
2018-01-28T21:03:09.044Z,96.30
2018-01-28T21:05:36.645Z,96.30
2018-01-28T21:08:03.468Z,96.30
2018-01-28T21:10:30.243Z,96.30
2018-01-28T21:12:57.270Z,96.20
2018-01-28T21:15:25.748Z,96.20
2018-01-28T21:17:52.422Z,96.30
2018-01-28T21:20:19.049Z,96.20
2018-01-28T21:22:45.755Z,96.10
2018-01-28T21:25:13.242Z,96.10
2018-01-28T21:27:40.067Z,96.10
2018-01-28T21:30:07.659Z,96.00
2018-01-28T21:32:35.533Z,95.90
2018-01-28T21:35:02.670Z,96.00
2018-01-28T21:37:29.403Z,96.10
2018-01-28T21:39:56.943Z,96.00
2018-01-28T21:42:24.551Z,96.00
2018-01-28T21:44:51.416Z,95.90
2018-01-28T21:47:18.466Z,96.10
2018-01-28T21:49:45.316Z,96.30
2018-01-28T21:52:12.623Z,96.30
2018-01-28T21:54:40.039Z,96.30
2018-01-28T21:57:06.920Z,96.30
2018-01-28T21:59:35.516Z,96.00
2018-01-28T22:02:02.936Z,96.00
2018-01-28T22:04:29.560Z,96.30
2018-01-28T22:06:57.113Z,96.20
2018-01-28T22:09:26.472Z,96.40
2018-01-28T22:11:53.432Z,96.40
2018-01-28T22:14:20.558Z,96.50
2018-01-28T22:16:47.900Z,96.50
2018-01-28T22:19:14.797Z,96.50
2018-01-28T22:21:42.743Z,96.50
2018-01-28T22:24:09.590Z,96.50
2018-01-28T22:26:36.444Z,96.50
2018-01-28T22:29:03.187Z,96.70
2018-01-28T22:31:30.138Z,96.60
2018-01-28T22:33:57.019Z,96.70
2018-01-28T22:36:24.148Z,96.60
2018-01-28T22:38:52.003Z,96.80
2018-01-28T22:41:20.298Z,96.70
2018-01-28T22:43:49.025Z,96.70
2018-01-28T22:46:16.008Z,96.70
2018-01-28T22:48:44.119Z,96.70
2018-01-28T22:51:13.026Z,96.70
2018-01-28T22:53:40.473Z,96.70
2018-01-28T22:56:07.633Z,96.60
2018-01-28T22:58:34.383Z,96.50
2018-01-28T23:01:01.130Z,96.30
2018-01-28T23:03:27.876Z,96.30
2018-01-28T23:05:55.137Z,96.30
2018-01-28T23:08:22.775Z,96.30
2018-01-28T23:10:50.368Z,96.50
2018-01-28T23:13:18.289Z,96.80
2018-01-28T23:15:47.128Z,96.70
2018-01-28T23:18:15.063Z,96.90
2018-01-28T23:20:42.408Z,96.80
2018-01-28T23:23:10.920Z,97.00
2018-01-28T23:25:38.020Z,97.00
2018-01-28T23:28:06.139Z,97.10
2018-01-28T23:30:34.063Z,97.40
2018-01-28T23:33:03.860Z,97.40
2018-01-28T23:35:31.349Z,97.40
2018-01-28T23:38:00.035Z,97.40
2018-01-28T23:40:27.501Z,97.40
2018-01-28T23:42:54.347Z,97.50
2018-01-28T23:45:21.707Z,97.50
2018-01-28T23:47:49.573Z,97.70
2018-01-28T23:50:17.555Z,97.70
2018-01-28T23:52:44.698Z,97.70
2018-01-28T23:55:12.684Z,97.80
2018-01-28T23:57:40.761Z,98.00
